sensor_id;sensor_type;location;lat;lon;timestamp;P1;durP1;ratioP1;P2;durP2;ratioP2
5710;SDS011;61291;52.524;13.422;2024-03-02T00:02:07;121.30;;;108.30;;
5710;SDS011;61291;52.524;13.422;2024-03-02T00:04:32;122.93;;;109.27;;
5710;SDS011;61291;52.524;13.422;2024-03-02T00:06:58;126.47;;;113.07;;
5710;SDS011;61291;52.524;13.422;2024-03-02T00:09:24;127.00;;;113.50;;
5710;SDS011;61291;52.524;13.422;2024-03-02T00:11:49;124.00;;;110.93;;
5710;SDS011;61291;52.524;13.422;2024-03-02T00:14:15;127.37;;;113.57;;
5710;SDS011;61291;52.524;13.422;2024-03-02T00:16:41;123.63;;;110.63;;
5710;SDS011;61291;52.524;13.422;2024-03-02T00:19:07;122.73;;;110.30;;
5710;SDS011;61291;52.524;13.422;2024-03-02T00:21:34;121.90;;;105.33;;
5710;SDS011;61291;52.524;13.422;2024-03-02T00:24:00;122.30;;;109.37;;
5710;SDS011;61291;52.524;13.422;2024-03-02T00:26:31;124.27;;;109.87;;
5710;SDS011;61291;52.524;13.422;2024-03-02T00:28:57;119.80;;;107.73;;
5710;SDS011;61291;52.524;13.422;2024-03-02T00:31:25;127.37;;;113.67;;
5710;SDS011;61291;52.524;13.422;2024-03-02T00:33:50;119.63;;;107.20;;
5710;SDS011;61291;52.524;13.422;2024-03-02T00:36:20;133.53;;;104.93;;
5710;SDS011;61291;52.524;13.422;2024-03-02T00:38:50;122.70;;;109.70;;
5710;SDS011;61291;52.524;13.422;2024-03-02T00:41:29;124.97;;;110.00;;
5710;SDS011;61291;52.524;13.422;2024-03-02T00:46:40;120.00;;;107.50;;
5710;SDS011;61291;52.524;13.422;2024-03-02T00:49:11;125.33;;;107.67;;
5710;SDS011;61291;52.524;13.422;2024-03-02T00:51:45;123.67;;;108.53;;
5710;SDS011;61291;52.524;13.422;2024-03-02T00:54:15;124.03;;;111.03;;
5710;SDS011;61291;52.524;13.422;2024-03-02T00:56:51;121.43;;;108.27;;
5710;SDS011;61291;52.524;13.422;2024-03-02T00:59:17;122.53;;;105.30;;
5710;SDS011;61291;52.524;13.422;2024-03-02T01:01:43;120.27;;;107.87;;
5710;SDS011;61291;52.524;13.422;2024-03-02T01:04:09;125.90;;;112.40;;
5710;SDS011;61291;52.524;13.422;2024-03-02T01:06:37;128.30;;;114.73;;
5710;SDS011;61291;52.524;13.422;2024-03-02T01:09:03;127.07;;;113.17;;
5710;SDS011;61291;52.524;13.422;2024-03-02T01:11:29;132.13;;;116.40;;
5710;SDS011;61291;52.524;13.422;2024-03-02T01:13:55;130.60;;;116.27;;
5710;SDS011;61291;52.524;13.422;2024-03-02T01:16:20;129.97;;;116.03;;
5710;SDS011;61291;52.524;13.422;2024-03-02T01:18:46;133.07;;;117.83;;
5710;SDS011;61291;52.524;13.422;2024-03-02T01:21:11;135.30;;;113.87;;
5710;SDS011;61291;52.524;13.422;2024-03-02T01:23:37;127.60;;;114.40;;
5710;SDS011;61291;52.524;13.422;2024-03-02T01:26:02;138.80;;;117.07;;
5710;SDS011;61291;52.524;13.422;2024-03-02T01:28:28;131.60;;;116.63;;
5710;SDS011;61291;52.524;13.422;2024-03-02T01:30:54;149.40;;;116.97;;
5710;SDS011;61291;52.524;13.422;2024-03-02T01:33:19;134.23;;;119.47;;
5710;SDS011;61291;52.524;13.422;2024-03-02T01:35:46;128.87;;;114.77;;
5710;SDS011;61291;52.524;13.422;2024-03-02T01:38:12;136.03;;;116.40;;
5710;SDS011;61291;52.524;13.422;2024-03-02T01:40:38;138.80;;;116.80;;
5710;SDS011;61291;52.524;13.422;2024-03-02T01:43:04;135.60;;;120.60;;
5710;SDS011;61291;52.524;13.422;2024-03-02T01:45:31;138.67;;;123.50;;
5710;SDS011;61291;52.524;13.422;2024-03-02T01:47:57;132.17;;;117.53;;
5710;SDS011;61291;52.524;13.422;2024-03-02T01:50:26;132.63;;;118.67;;
5710;SDS011;61291;52.524;13.422;2024-03-02T01:52:53;136.47;;;118.27;;
5710;SDS011;61291;52.524;13.422;2024-03-02T01:55:20;139.90;;;124.67;;
5710;SDS011;61291;52.524;13.422;2024-03-02T01:57:45;136.87;;;115.90;;
5710;SDS011;61291;52.524;13.422;2024-03-02T02:00:12;152.63;;;120.77;;
5710;SDS011;61291;52.524;13.422;2024-03-02T02:02:38;145.53;;;120.50;;
5710;SDS011;61291;52.524;13.422;2024-03-02T02:05:04;138.40;;;123.00;;
5710;SDS011;61291;52.524;13.422;2024-03-02T02:07:30;141.93;;;121.60;;
5710;SDS011;61291;52.524;13.422;2024-03-02T02:09:56;151.20;;;123.27;;
5710;SDS011;61291;52.524;13.422;2024-03-02T02:12:21;149.73;;;127.27;;
5710;SDS011;61291;52.524;13.422;2024-03-02T02:14:47;147.63;;;122.10;;
5710;SDS011;61291;52.524;13.422;2024-03-02T02:17:14;151.00;;;127.10;;
5710;SDS011;61291;52.524;13.422;2024-03-02T02:19:40;138.83;;;122.10;;
5710;SDS011;61291;52.524;13.422;2024-03-02T02:22:06;178.07;;;127.90;;
5710;SDS011;61291;52.524;13.422;2024-03-02T02:24:31;147.17;;;124.90;;
5710;SDS011;61291;52.524;13.422;2024-03-02T02:26:57;170.83;;;127.23;;
5710;SDS011;61291;52.524;13.422;2024-03-02T02:29:23;142.13;;;125.47;;
5710;SDS011;61291;52.524;13.422;2024-03-02T02:31:48;156.43;;;126.60;;
5710;SDS011;61291;52.524;13.422;2024-03-02T02:34:14;160.40;;;128.73;;
5710;SDS011;61291;52.524;13.422;2024-03-02T02:36:40;153.13;;;125.90;;
5710;SDS011;61291;52.524;13.422;2024-03-02T02:39:08;165.83;;;130.50;;
5710;SDS011;61291;52.524;13.422;2024-03-02T02:41:40;166.83;;;132.30;;
5710;SDS011;61291;52.524;13.422;2024-03-02T02:44:05;185.83;;;127.33;;
5710;SDS011;61291;52.524;13.422;2024-03-02T02:46:31;173.80;;;132.10;;
5710;SDS011;61291;52.524;13.422;2024-03-02T02:48:56;165.47;;;127.53;;
5710;SDS011;61291;52.524;13.422;2024-03-02T02:51:22;159.30;;;128.90;;
5710;SDS011;61291;52.524;13.422;2024-03-02T02:53:48;172.37;;;131.90;;
5710;SDS011;61291;52.524;13.422;2024-03-02T02:56:14;171.10;;;128.40;;
5710;SDS011;61291;52.524;13.422;2024-03-02T02:58:40;168.63;;;129.33;;
5710;SDS011;61291;52.524;13.422;2024-03-02T03:01:06;157.60;;;126.70;;
5710;SDS011;61291;52.524;13.422;2024-03-02T03:03:32;155.97;;;129.27;;
5710;SDS011;61291;52.524;13.422;2024-03-02T03:05:58;182.63;;;130.23;;
5710;SDS011;61291;52.524;13.422;2024-03-02T03:08:23;168.87;;;132.00;;
5710;SDS011;61291;52.524;13.422;2024-03-02T03:10:49;160.77;;;130.33;;
5710;SDS011;61291;52.524;13.422;2024-03-02T03:13:14;158.63;;;129.40;;
5710;SDS011;61291;52.524;13.422;2024-03-02T03:15:40;158.03;;;131.33;;
5710;SDS011;61291;52.524;13.422;2024-03-02T03:18:05;166.17;;;131.00;;
5710;SDS011;61291;52.524;13.422;2024-03-02T03:20:33;183.83;;;134.43;;
5710;SDS011;61291;52.524;13.422;2024-03-02T03:22:58;156.20;;;127.30;;
5710;SDS011;61291;52.524;13.422;2024-03-02T03:25:28;168.57;;;130.90;;
5710;SDS011;61291;52.524;13.422;2024-03-02T03:27:54;163.20;;;131.47;;
5710;SDS011;61291;52.524;13.422;2024-03-02T03:30:20;159.73;;;127.17;;
5710;SDS011;61291;52.524;13.422;2024-03-02T03:32:45;160.30;;;131.20;;
5710;SDS011;61291;52.524;13.422;2024-03-02T03:35:13;156.07;;;128.20;;
5710;SDS011;61291;52.524;13.422;2024-03-02T03:37:40;154.00;;;134.27;;
5710;SDS011;61291;52.524;13.422;2024-03-02T03:40:11;157.73;;;126.93;;
5710;SDS011;61291;52.524;13.422;2024-03-02T03:42:39;160.27;;;128.37;;
5710;SDS011;61291;52.524;13.422;2024-03-02T03:45:04;180.73;;;132.17;;
5710;SDS011;61291;52.524;13.422;2024-03-02T03:47:31;152.70;;;127.77;;
5710;SDS011;61291;52.524;13.422;2024-03-02T03:49:57;160.83;;;126.70;;
5710;SDS011;61291;52.524;13.422;2024-03-02T03:52:23;166.80;;;132.10;;
5710;SDS011;61291;52.524;13.422;2024-03-02T03:54:48;168.03;;;130.90;;
5710;SDS011;61291;52.524;13.422;2024-03-02T03:57:14;168.23;;;130.63;;
5710;SDS011;61291;52.524;13.422;2024-03-02T03:59:39;156.50;;;127.87;;
5710;SDS011;61291;52.524;13.422;2024-03-02T04:02:05;151.13;;;128.13;;
5710;SDS011;61291;52.524;13.422;2024-03-02T04:04:30;152.23;;;126.03;;
5710;SDS011;61291;52.524;13.422;2024-03-02T04:06:56;175.90;;;130.50;;
5710;SDS011;61291;52.524;13.422;2024-03-02T04:09:21;166.47;;;131.50;;
5710;SDS011;61291;52.524;13.422;2024-03-02T04:11:47;158.13;;;129.33;;
5710;SDS011;61291;52.524;13.422;2024-03-02T04:14:12;153.33;;;124.67;;
5710;SDS011;61291;52.524;13.422;2024-03-02T04:16:38;161.93;;;129.90;;
5710;SDS011;61291;52.524;13.422;2024-03-02T04:19:04;151.60;;;124.80;;
5710;SDS011;61291;52.524;13.422;2024-03-02T04:21:29;166.30;;;126.63;;
5710;SDS011;61291;52.524;13.422;2024-03-02T04:23:55;142.27;;;126.50;;
5710;SDS011;61291;52.524;13.422;2024-03-02T04:26:24;153.90;;;123.97;;
5710;SDS011;61291;52.524;13.422;2024-03-02T04:28:50;148.87;;;127.20;;
5710;SDS011;61291;52.524;13.422;2024-03-02T04:31:19;148.13;;;121.03;;
5710;SDS011;61291;52.524;13.422;2024-03-02T04:33:44;145.73;;;124.60;;
5710;SDS011;61291;52.524;13.422;2024-03-02T04:36:10;165.80;;;122.43;;
5710;SDS011;61291;52.524;13.422;2024-03-02T04:38:36;142.13;;;123.77;;
5710;SDS011;61291;52.524;13.422;2024-03-02T04:41:01;148.50;;;125.30;;
5710;SDS011;61291;52.524;13.422;2024-03-02T04:43:27;143.07;;;121.20;;
5710;SDS011;61291;52.524;13.422;2024-03-02T04:45:52;156.00;;;128.17;;
5710;SDS011;61291;52.524;13.422;2024-03-02T04:48:18;138.70;;;123.80;;
5710;SDS011;61291;52.524;13.422;2024-03-02T04:50:44;155.70;;;122.00;;
5710;SDS011;61291;52.524;13.422;2024-03-02T04:53:09;144.07;;;126.80;;
5710;SDS011;61291;52.524;13.422;2024-03-02T04:55:35;163.37;;;125.00;;
5710;SDS011;61291;52.524;13.422;2024-03-02T04:58:20;139.70;;;124.23;;
5710;SDS011;61291;52.524;13.422;2024-03-02T05:00:46;145.73;;;124.20;;
5710;SDS011;61291;52.524;13.422;2024-03-02T05:03:11;139.43;;;119.07;;
5710;SDS011;61291;52.524;13.422;2024-03-02T05:05:38;144.63;;;120.90;;
5710;SDS011;61291;52.524;13.422;2024-03-02T05:08:03;136.13;;;119.30;;
5710;SDS011;61291;52.524;13.422;2024-03-02T05:10:29;134.60;;;118.63;;
5710;SDS011;61291;52.524;13.422;2024-03-02T05:12:54;155.60;;;124.20;;
5710;SDS011;61291;52.524;13.422;2024-03-02T05:15:24;138.80;;;118.63;;
5710;SDS011;61291;52.524;13.422;2024-03-02T05:17:49;145.60;;;119.70;;
5710;SDS011;61291;52.524;13.422;2024-03-02T05:20:15;131.77;;;117.63;;
5710;SDS011;61291;52.524;13.422;2024-03-02T05:22:41;142.50;;;119.43;;
5710;SDS011;61291;52.524;13.422;2024-03-02T05:25:07;137.70;;;120.60;;
5710;SDS011;61291;52.524;13.422;2024-03-02T05:27:34;142.13;;;119.77;;
5710;SDS011;61291;52.524;13.422;2024-03-02T05:30:00;154.00;;;119.10;;
5710;SDS011;61291;52.524;13.422;2024-03-02T05:32:25;133.00;;;115.17;;
5710;SDS011;61291;52.524;13.422;2024-03-02T05:34:51;150.20;;;119.37;;
5710;SDS011;61291;52.524;13.422;2024-03-02T05:37:17;142.83;;;119.60;;
5710;SDS011;61291;52.524;13.422;2024-03-02T05:39:42;146.87;;;119.77;;
5710;SDS011;61291;52.524;13.422;2024-03-02T05:42:11;145.83;;;117.37;;
5710;SDS011;61291;52.524;13.422;2024-03-02T05:44:36;150.47;;;119.40;;
5710;SDS011;61291;52.524;13.422;2024-03-02T05:47:02;157.23;;;124.70;;
5710;SDS011;61291;52.524;13.422;2024-03-02T05:49:28;147.60;;;122.57;;
5710;SDS011;61291;52.524;13.422;2024-03-02T05:51:54;152.10;;;123.07;;
5710;SDS011;61291;52.524;13.422;2024-03-02T05:54:20;156.87;;;122.90;;
5710;SDS011;61291;52.524;13.422;2024-03-02T05:56:45;169.40;;;121.73;;
5710;SDS011;61291;52.524;13.422;2024-03-02T05:59:11;154.90;;;126.40;;
5710;SDS011;61291;52.524;13.422;2024-03-02T06:01:40;157.63;;;120.87;;
5710;SDS011;61291;52.524;13.422;2024-03-02T06:04:09;158.30;;;124.17;;
5710;SDS011;61291;52.524;13.422;2024-03-02T06:06:38;169.90;;;127.17;;
5710;SDS011;61291;52.524;13.422;2024-03-02T06:09:04;173.57;;;124.23;;
5710;SDS011;61291;52.524;13.422;2024-03-02T06:11:32;167.47;;;123.00;;
5710;SDS011;61291;52.524;13.422;2024-03-02T06:13:58;153.03;;;125.87;;
5710;SDS011;61291;52.524;13.422;2024-03-02T06:16:24;165.83;;;125.80;;
5710;SDS011;61291;52.524;13.422;2024-03-02T06:18:49;183.07;;;127.50;;
5710;SDS011;61291;52.524;13.422;2024-03-02T06:21:15;167.47;;;126.77;;
5710;SDS011;61291;52.524;13.422;2024-03-02T06:23:40;162.03;;;125.90;;
5710;SDS011;61291;52.524;13.422;2024-03-02T06:26:05;159.53;;;121.77;;
5710;SDS011;61291;52.524;13.422;2024-03-02T06:28:31;173.97;;;126.97;;
5710;SDS011;61291;52.524;13.422;2024-03-02T06:30:58;164.07;;;123.47;;
5710;SDS011;61291;52.524;13.422;2024-03-02T06:33:23;169.57;;;129.07;;
5710;SDS011;61291;52.524;13.422;2024-03-02T06:35:49;156.00;;;127.90;;
5710;SDS011;61291;52.524;13.422;2024-03-02T06:38:14;169.83;;;123.37;;
5710;SDS011;61291;52.524;13.422;2024-03-02T06:40:40;175.00;;;124.50;;
5710;SDS011;61291;52.524;13.422;2024-03-02T06:43:05;169.77;;;122.63;;
5710;SDS011;61291;52.524;13.422;2024-03-02T06:45:31;161.07;;;124.83;;
5710;SDS011;61291;52.524;13.422;2024-03-02T06:47:58;174.90;;;122.87;;
5710;SDS011;61291;52.524;13.422;2024-03-02T06:50:24;165.37;;;121.13;;
5710;SDS011;61291;52.524;13.422;2024-03-02T06:52:50;170.33;;;118.77;;
5710;SDS011;61291;52.524;13.422;2024-03-02T06:55:15;164.37;;;122.10;;
5710;SDS011;61291;52.524;13.422;2024-03-02T06:57:40;165.70;;;120.83;;
5710;SDS011;61291;52.524;13.422;2024-03-02T07:00:06;158.50;;;120.50;;
5710;SDS011;61291;52.524;13.422;2024-03-02T07:02:33;160.93;;;126.97;;
5710;SDS011;61291;52.524;13.422;2024-03-02T07:04:59;165.47;;;124.03;;
5710;SDS011;61291;52.524;13.422;2024-03-02T07:07:25;163.73;;;123.37;;
5710;SDS011;61291;52.524;13.422;2024-03-02T07:09:50;146.17;;;121.90;;
5710;SDS011;61291;52.524;13.422;2024-03-02T07:12:16;171.70;;;123.87;;
5710;SDS011;61291;52.524;13.422;2024-03-02T07:14:41;145.13;;;119.00;;
5710;SDS011;61291;52.524;13.422;2024-03-02T07:17:25;166.03;;;121.77;;
5710;SDS011;61291;52.524;13.422;2024-03-02T07:19:51;161.37;;;126.13;;
5710;SDS011;61291;52.524;13.422;2024-03-02T07:22:16;167.33;;;124.00;;
5710;SDS011;61291;52.524;13.422;2024-03-02T07:24:42;159.97;;;122.53;;
5710;SDS011;61291;52.524;13.422;2024-03-02T07:27:09;164.13;;;123.50;;
5710;SDS011;61291;52.524;13.422;2024-03-02T07:29:35;155.27;;;129.23;;
5710;SDS011;61291;52.524;13.422;2024-03-02T07:32:01;151.83;;;127.70;;
5710;SDS011;61291;52.524;13.422;2024-03-02T07:34:26;156.23;;;128.73;;
5710;SDS011;61291;52.524;13.422;2024-03-02T07:36:52;149.53;;;126.17;;
5710;SDS011;61291;52.524;13.422;2024-03-02T07:39:18;151.63;;;126.77;;
5710;SDS011;61291;52.524;13.422;2024-03-02T07:41:44;144.80;;;125.70;;
5710;SDS011;61291;52.524;13.422;2024-03-02T07:44:10;152.03;;;122.90;;
5710;SDS011;61291;52.524;13.422;2024-03-02T07:46:39;153.37;;;122.63;;
5710;SDS011;61291;52.524;13.422;2024-03-02T07:49:05;143.27;;;124.67;;
5710;SDS011;61291;52.524;13.422;2024-03-02T07:51:31;148.20;;;124.17;;
5710;SDS011;61291;52.524;13.422;2024-03-02T07:53:56;137.97;;;121.50;;
5710;SDS011;61291;52.524;13.422;2024-03-02T07:56:22;149.23;;;122.07;;
5710;SDS011;61291;52.524;13.422;2024-03-02T07:58:48;140.37;;;117.93;;
5710;SDS011;61291;52.524;13.422;2024-03-02T08:01:14;135.20;;;120.43;;
5710;SDS011;61291;52.524;13.422;2024-03-02T08:03:39;126.03;;;112.57;;
5710;SDS011;61291;52.524;13.422;2024-03-02T08:06:05;125.97;;;111.97;;
5710;SDS011;61291;52.524;13.422;2024-03-02T08:08:31;139.53;;;114.17;;
5710;SDS011;61291;52.524;13.422;2024-03-02T08:10:56;125.13;;;109.90;;
5710;SDS011;61291;52.524;13.422;2024-03-02T08:13:22;121.17;;;105.70;;
5710;SDS011;61291;52.524;13.422;2024-03-02T08:15:47;125.23;;;109.07;;
5710;SDS011;61291;52.524;13.422;2024-03-02T08:18:13;122.23;;;109.33;;
5710;SDS011;61291;52.524;13.422;2024-03-02T08:20:38;115.77;;;102.80;;
5710;SDS011;61291;52.524;13.422;2024-03-02T08:23:05;119.63;;;105.50;;
5710;SDS011;61291;52.524;13.422;2024-03-02T08:25:30;113.73;;;101.27;;
5710;SDS011;61291;52.524;13.422;2024-03-02T08:27:56;119.13;;;102.47;;
5710;SDS011;61291;52.524;13.422;2024-03-02T08:30:21;116.47;;;103.90;;
5710;SDS011;61291;52.524;13.422;2024-03-02T08:32:47;120.07;;;104.67;;
5710;SDS011;61291;52.524;13.422;2024-03-02T08:35:13;118.00;;;105.87;;
5710;SDS011;61291;52.524;13.422;2024-03-02T08:37:39;115.87;;;103.27;;
5710;SDS011;61291;52.524;13.422;2024-03-02T08:40:07;114.23;;;101.87;;
5710;SDS011;61291;52.524;13.422;2024-03-02T08:42:33;113.83;;;98.60;;
5710;SDS011;61291;52.524;13.422;2024-03-02T08:44:58;113.43;;;101.57;;
5710;SDS011;61291;52.524;13.422;2024-03-02T08:47:26;118.47;;;104.10;;
5710;SDS011;61291;52.524;13.422;2024-03-02T08:49:52;113.60;;;102.40;;
5710;SDS011;61291;52.524;13.422;2024-03-02T08:52:17;111.07;;;100.17;;
5710;SDS011;61291;52.524;13.422;2024-03-02T08:54:43;110.70;;;99.70;;
5710;SDS011;61291;52.524;13.422;2024-03-02T08:57:08;112.03;;;99.77;;
5710;SDS011;61291;52.524;13.422;2024-03-02T08:59:33;107.73;;;96.33;;
5710;SDS011;61291;52.524;13.422;2024-03-02T09:01:59;103.07;;;92.77;;
5710;SDS011;61291;52.524;13.422;2024-03-02T09:04:25;109.17;;;97.27;;
5710;SDS011;61291;52.524;13.422;2024-03-02T09:06:50;111.20;;;100.17;;
5710;SDS011;61291;52.524;13.422;2024-03-02T09:09:16;106.93;;;96.27;;
5710;SDS011;61291;52.524;13.422;2024-03-02T09:11:41;111.00;;;98.70;;
5710;SDS011;61291;52.524;13.422;2024-03-02T09:14:06;107.33;;;96.07;;
5710;SDS011;61291;52.524;13.422;2024-03-02T09:16:32;105.90;;;95.60;;
5710;SDS011;61291;52.524;13.422;2024-03-02T09:18:57;117.50;;;105.20;;
5710;SDS011;61291;52.524;13.422;2024-03-02T09:21:23;115.70;;;104.47;;
5710;SDS011;61291;52.524;13.422;2024-03-02T09:23:50;113.57;;;101.70;;
5710;SDS011;61291;52.524;13.422;2024-03-02T09:26:16;106.70;;;95.43;;
5710;SDS011;61291;52.524;13.422;2024-03-02T09:28:44;114.33;;;103.50;;
5710;SDS011;61291;52.524;13.422;2024-03-02T09:31:10;111.33;;;100.57;;
5710;SDS011;61291;52.524;13.422;2024-03-02T09:33:36;110.00;;;99.33;;
5710;SDS011;61291;52.524;13.422;2024-03-02T09:36:04;103.93;;;93.60;;
5710;SDS011;61291;52.524;13.422;2024-03-02T09:38:31;112.20;;;100.80;;
5710;SDS011;61291;52.524;13.422;2024-03-02T09:40:58;102.90;;;92.27;;
5710;SDS011;61291;52.524;13.422;2024-03-02T09:43:24;105.17;;;94.67;;
5710;SDS011;61291;52.524;13.422;2024-03-02T09:45:50;115.30;;;103.90;;
5710;SDS011;61291;52.524;13.422;2024-03-02T09:48:16;102.67;;;92.87;;
5710;SDS011;61291;52.524;13.422;2024-03-02T09:50:43;110.80;;;99.73;;
5710;SDS011;61291;52.524;13.422;2024-03-02T09:53:09;106.97;;;97.20;;
5710;SDS011;61291;52.524;13.422;2024-03-02T09:55:36;107.40;;;97.50;;
5710;SDS011;61291;52.524;13.422;2024-03-02T09:58:02;104.03;;;94.33;;
5710;SDS011;61291;52.524;13.422;2024-03-02T10:00:28;98.30;;;88.67;;
5710;SDS011;61291;52.524;13.422;2024-03-02T10:02:53;95.23;;;85.70;;
5710;SDS011;61291;52.524;13.422;2024-03-02T10:05:23;95.30;;;85.97;;
5710;SDS011;61291;52.524;13.422;2024-03-02T10:08:00;103.70;;;93.97;;
5710;SDS011;61291;52.524;13.422;2024-03-02T10:10:34;106.87;;;97.13;;
5710;SDS011;61291;52.524;13.422;2024-03-02T10:13:08;103.60;;;93.93;;
5710;SDS011;61291;52.524;13.422;2024-03-02T10:15:37;101.47;;;92.07;;
5710;SDS011;61291;52.524;13.422;2024-03-02T10:18:05;104.10;;;94.90;;
5710;SDS011;61291;52.524;13.422;2024-03-02T10:20:34;100.00;;;91.03;;
5710;SDS011;61291;52.524;13.422;2024-03-02T10:23:09;97.73;;;88.60;;
5710;SDS011;61291;52.524;13.422;2024-03-02T10:25:35;97.53;;;88.27;;
5710;SDS011;61291;52.524;13.422;2024-03-02T10:28:01;98.00;;;88.80;;
5710;SDS011;61291;52.524;13.422;2024-03-02T10:30:27;96.00;;;86.00;;
5710;SDS011;61291;52.524;13.422;2024-03-02T10:32:53;92.13;;;83.60;;
5710;SDS011;61291;52.524;13.422;2024-03-02T10:35:20;85.67;;;78.07;;
5710;SDS011;61291;52.524;13.422;2024-03-02T10:37:47;90.57;;;82.17;;
5710;SDS011;61291;52.524;13.422;2024-03-02T10:40:22;82.47;;;74.60;;
5710;SDS011;61291;52.524;13.422;2024-03-02T10:42:49;80.47;;;73.03;;
5710;SDS011;61291;52.524;13.422;2024-03-02T10:45:15;82.63;;;75.13;;
5710;SDS011;61291;52.524;13.422;2024-03-02T10:47:44;81.50;;;74.27;;
5710;SDS011;61291;52.524;13.422;2024-03-02T10:50:12;81.93;;;74.10;;
5710;SDS011;61291;52.524;13.422;2024-03-02T10:52:37;84.00;;;76.33;;
5710;SDS011;61291;52.524;13.422;2024-03-02T10:55:07;93.33;;;85.70;;
5710;SDS011;61291;52.524;13.422;2024-03-02T10:57:53;91.30;;;83.47;;
5710;SDS011;61291;52.524;13.422;2024-03-02T11:00:21;89.27;;;81.87;;
5710;SDS011;61291;52.524;13.422;2024-03-02T11:02:56;82.17;;;74.83;;
5710;SDS011;61291;52.524;13.422;2024-03-02T11:05:43;89.67;;;81.37;;
5710;SDS011;61291;52.524;13.422;2024-03-02T11:08:17;86.37;;;79.23;;
5710;SDS011;61291;52.524;13.422;2024-03-02T11:10:50;88.63;;;81.20;;
5710;SDS011;61291;52.524;13.422;2024-03-02T11:13:18;88.20;;;80.83;;
5710;SDS011;61291;52.524;13.422;2024-03-02T11:15:55;83.27;;;76.53;;
5710;SDS011;61291;52.524;13.422;2024-03-02T11:18:24;87.70;;;80.47;;
5710;SDS011;61291;52.524;13.422;2024-03-02T11:20:51;84.10;;;76.90;;
5710;SDS011;61291;52.524;13.422;2024-03-02T11:23:20;86.50;;;79.40;;
5710;SDS011;61291;52.524;13.422;2024-03-02T11:26:17;89.43;;;81.70;;
5710;SDS011;61291;52.524;13.422;2024-03-02T11:28:47;90.63;;;82.90;;
5710;SDS011;61291;52.524;13.422;2024-03-02T11:31:13;82.43;;;75.43;;
5710;SDS011;61291;52.524;13.422;2024-03-02T11:33:38;82.83;;;75.60;;
5710;SDS011;61291;52.524;13.422;2024-03-02T11:36:05;84.60;;;76.97;;
5710;SDS011;61291;52.524;13.422;2024-03-02T11:38:32;89.47;;;81.60;;
5710;SDS011;61291;52.524;13.422;2024-03-02T11:40:59;86.60;;;78.87;;
5710;SDS011;61291;52.524;13.422;2024-03-02T11:43:32;82.97;;;75.60;;
5710;SDS011;61291;52.524;13.422;2024-03-02T11:45:59;81.77;;;73.73;;
5710;SDS011;61291;52.524;13.422;2024-03-02T11:48:25;86.70;;;79.00;;
5710;SDS011;61291;52.524;13.422;2024-03-02T11:50:51;80.20;;;72.97;;
5710;SDS011;61291;52.524;13.422;2024-03-02T11:53:17;79.03;;;71.83;;
5710;SDS011;61291;52.524;13.422;2024-03-02T11:55:44;79.97;;;73.07;;
5710;SDS011;61291;52.524;13.422;2024-03-02T11:58:11;94.77;;;84.03;;
5710;SDS011;61291;52.524;13.422;2024-03-02T12:00:45;82.30;;;74.57;;
5710;SDS011;61291;52.524;13.422;2024-03-02T12:03:12;92.77;;;84.53;;
5710;SDS011;61291;52.524;13.422;2024-03-02T12:05:38;86.87;;;79.60;;
5710;SDS011;61291;52.524;13.422;2024-03-02T12:08:05;88.77;;;81.10;;
5710;SDS011;61291;52.524;13.422;2024-03-02T12:10:31;81.17;;;74.47;;
5710;SDS011;61291;52.524;13.422;2024-03-02T12:13:01;87.13;;;79.93;;
5710;SDS011;61291;52.524;13.422;2024-03-02T12:15:37;87.10;;;78.30;;
5710;SDS011;61291;52.524;13.422;2024-03-02T12:18:03;82.80;;;75.60;;
5710;SDS011;61291;52.524;13.422;2024-03-02T12:20:30;86.90;;;79.20;;
5710;SDS011;61291;52.524;13.422;2024-03-02T12:22:58;85.53;;;77.90;;
5710;SDS011;61291;52.524;13.422;2024-03-02T12:25:25;84.10;;;76.83;;
5710;SDS011;61291;52.524;13.422;2024-03-02T12:27:55;84.10;;;77.00;;
5710;SDS011;61291;52.524;13.422;2024-03-02T12:30:23;83.50;;;76.57;;
5710;SDS011;61291;52.524;13.422;2024-03-02T12:32:49;78.07;;;71.67;;
5710;SDS011;61291;52.524;13.422;2024-03-02T12:35:15;94.63;;;85.57;;
5710;SDS011;61291;52.524;13.422;2024-03-02T12:37:47;85.33;;;78.07;;
5710;SDS011;61291;52.524;13.422;2024-03-02T12:40:26;79.60;;;72.13;;
5710;SDS011;61291;52.524;13.422;2024-03-02T12:43:04;80.47;;;73.47;;
5710;SDS011;61291;52.524;13.422;2024-03-02T12:45:30;80.67;;;73.70;;
5710;SDS011;61291;52.524;13.422;2024-03-02T12:47:56;80.93;;;73.70;;
5710;SDS011;61291;52.524;13.422;2024-03-02T12:50:21;84.40;;;75.70;;
5710;SDS011;61291;52.524;13.422;2024-03-02T12:52:50;77.20;;;70.30;;
5710;SDS011;61291;52.524;13.422;2024-03-02T12:55:17;74.18;;;67.68;;
5710;SDS011;61291;52.524;13.422;2024-03-02T12:57:42;81.20;;;73.80;;
5710;SDS011;61291;52.524;13.422;2024-03-02T13:00:09;77.53;;;70.93;;
5710;SDS011;61291;52.524;13.422;2024-03-02T13:02:36;86.97;;;79.57;;
5710;SDS011;61291;52.524;13.422;2024-03-02T13:05:04;80.73;;;73.43;;
5710;SDS011;61291;52.524;13.422;2024-03-02T13:07:35;85.43;;;77.90;;
5710;SDS011;61291;52.524;13.422;2024-03-02T13:10:01;76.03;;;69.40;;
5710;SDS011;61291;52.524;13.422;2024-03-02T13:12:27;77.73;;;71.43;;
5710;SDS011;61291;52.524;13.422;2024-03-02T13:14:54;76.83;;;70.23;;
5710;SDS011;61291;52.524;13.422;2024-03-02T13:17:20;74.87;;;68.57;;
5710;SDS011;61291;52.524;13.422;2024-03-02T13:19:52;77.17;;;71.07;;
5710;SDS011;61291;52.524;13.422;2024-03-02T13:22:18;82.67;;;76.23;;
5710;SDS011;61291;52.524;13.422;2024-03-02T13:24:44;82.63;;;75.30;;
5710;SDS011;61291;52.524;13.422;2024-03-02T13:27:09;86.43;;;79.40;;
5710;SDS011;61291;52.524;13.422;2024-03-02T13:29:35;84.00;;;77.00;;
5710;SDS011;61291;52.524;13.422;2024-03-02T13:32:00;81.93;;;75.47;;
5710;SDS011;61291;52.524;13.422;2024-03-02T13:34:26;78.80;;;72.47;;
5710;SDS011;61291;52.524;13.422;2024-03-02T13:36:52;78.50;;;72.20;;
5710;SDS011;61291;52.524;13.422;2024-03-02T13:39:17;82.57;;;76.27;;
5710;SDS011;61291;52.524;13.422;2024-03-02T13:41:43;70.63;;;65.03;;
5710;SDS011;61291;52.524;13.422;2024-03-02T13:44:16;83.87;;;77.07;;
5710;SDS011;61291;52.524;13.422;2024-03-02T13:46:42;80.17;;;73.70;;
5710;SDS011;61291;52.524;13.422;2024-03-02T13:49:10;82.37;;;75.37;;
5710;SDS011;61291;52.524;13.422;2024-03-02T13:51:36;75.80;;;68.80;;
5710;SDS011;61291;52.524;13.422;2024-03-02T13:54:01;79.93;;;72.83;;
5710;SDS011;61291;52.524;13.422;2024-03-02T13:56:28;76.83;;;70.33;;
5710;SDS011;61291;52.524;13.422;2024-03-02T13:58:54;74.97;;;68.53;;
5710;SDS011;61291;52.524;13.422;2024-03-02T14:01:19;74.73;;;68.50;;
5710;SDS011;61291;52.524;13.422;2024-03-02T14:03:45;76.77;;;70.27;;
5710;SDS011;61291;52.524;13.422;2024-03-02T14:06:11;74.23;;;68.10;;